sensor_id;sensor_type;location;lat;lon;timestamp;temperature;humidity
23207;DHT22;11773;52.570;13.052;2023-04-05T00:01:42;4.50;99.90
23207;DHT22;11773;52.570;13.052;2023-04-05T00:04:15;4.40;99.90
23207;DHT22;11773;52.570;13.052;2023-04-05T00:06:48;4.40;99.90
23207;DHT22;11773;52.570;13.052;2023-04-05T00:09:20;4.30;99.90
23207;DHT22;11773;52.570;13.052;2023-04-05T00:11:49;4.40;99.90
23207;DHT22;11773;52.570;13.052;2023-04-05T00:14:19;4.50;99.90
23207;DHT22;11773;52.570;13.052;2023-04-05T00:16:49;4.50;99.90
23207;DHT22;11773;52.570;13.052;2023-04-05T00:19:19;4.60;99.90
23207;DHT22;11773;52.570;13.052;2023-04-05T00:21:50;4.50;99.90
23207;DHT22;11773;52.570;13.052;2023-04-05T00:24:21;4.50;99.90
23207;DHT22;11773;52.570;13.052;2023-04-05T00:26:51;4.40;99.90
23207;DHT22;11773;52.570;13.052;2023-04-05T00:29:20;4.50;99.90
23207;DHT22;11773;52.570;13.052;2023-04-05T00:31:50;4.40;99.90
23207;DHT22;11773;52.570;13.052;2023-04-05T00:34:19;4.40;99.90
23207;DHT22;11773;52.570;13.052;2023-04-05T00:36:49;4.30;99.90
23207;DHT22;11773;52.570;13.052;2023-04-05T00:39:18;4.20;99.90
23207;DHT22;11773;52.570;13.052;2023-04-05T00:41:48;4.10;99.90
23207;DHT22;11773;52.570;13.052;2023-04-05T00:44:17;4.10;99.90
23207;DHT22;11773;52.570;13.052;2023-04-05T00:46:47;4.00;99.90
23207;DHT22;11773;52.570;13.052;2023-04-05T00:49:17;4.20;99.90
23207;DHT22;11773;52.570;13.052;2023-04-05T00:51:47;4.20;99.90
23207;DHT22;11773;52.570;13.052;2023-04-05T00:54:18;4.20;99.90
23207;DHT22;11773;52.570;13.052;2023-04-05T00:56:48;4.00;99.90
23207;DHT22;11773;52.570;13.052;2023-04-05T00:59:19;4.10;99.90
23207;DHT22;11773;52.570;13.052;2023-04-05T01:02:00;3.80;99.90
23207;DHT22;11773;52.570;13.052;2023-04-05T01:04:35;4.00;99.90
23207;DHT22;11773;52.570;13.052;2023-04-05T01:07:16;3.90;99.90
23207;DHT22;11773;52.570;13.052;2023-04-05T01:09:58;4.10;99.90
23207;DHT22;11773;52.570;13.052;2023-04-05T01:12:31;3.90;99.90
23207;DHT22;11773;52.570;13.052;2023-04-05T01:15:03;4.10;99.90
23207;DHT22;11773;52.570;13.052;2023-04-05T01:17:33;3.90;99.90
23207;DHT22;11773;52.570;13.052;2023-04-05T01:20:08;3.90;99.90
23207;DHT22;11773;52.570;13.052;2023-04-05T01:23:02;3.80;99.90
23207;DHT22;11773;52.570;13.052;2023-04-05T01:26:01;3.70;99.90
23207;DHT22;11773;52.570;13.052;2023-04-05T01:28:36;3.90;99.90
23207;DHT22;11773;52.570;13.052;2023-04-05T01:31:29;3.90;99.90
23207;DHT22;11773;52.570;13.052;2023-04-05T01:34:30;3.90;99.90
23207;DHT22;11773;52.570;13.052;2023-04-05T01:37:00;3.90;99.90
23207;DHT22;11773;52.570;13.052;2023-04-05T01:39:26;3.90;99.90
23207;DHT22;11773;52.570;13.052;2023-04-05T01:41:59;3.60;99.90
23207;DHT22;11773;52.570;13.052;2023-04-05T01:44:29;3.70;99.90
23207;DHT22;11773;52.570;13.052;2023-04-05T01:46:59;3.60;99.90
23207;DHT22;11773;52.570;13.052;2023-04-05T01:49:28;3.50;99.90
23207;DHT22;11773;52.570;13.052;2023-04-05T01:51:58;3.50;99.90
23207;DHT22;11773;52.570;13.052;2023-04-05T01:54:27;3.70;99.90
23207;DHT22;11773;52.570;13.052;2023-04-05T01:56:57;3.60;99.90
23207;DHT22;11773;52.570;13.052;2023-04-05T01:59:26;3.50;99.90
23207;DHT22;11773;52.570;13.052;2023-04-05T02:01:56;3.60;99.90
23207;DHT22;11773;52.570;13.052;2023-04-05T02:04:26;3.70;99.90
23207;DHT22;11773;52.570;13.052;2023-04-05T02:06:55;3.40;99.90
23207;DHT22;11773;52.570;13.052;2023-04-05T02:09:25;3.40;99.90
23207;DHT22;11773;52.570;13.052;2023-04-05T02:11:54;3.40;99.90
23207;DHT22;11773;52.570;13.052;2023-04-05T02:14:24;3.40;99.90
23207;DHT22;11773;52.570;13.052;2023-04-05T02:16:54;3.30;99.90
23207;DHT22;11773;52.570;13.052;2023-04-05T02:19:23;3.40;99.90
23207;DHT22;11773;52.570;13.052;2023-04-05T02:21:53;3.50;99.90
23207;DHT22;11773;52.570;13.052;2023-04-05T02:24:23;3.40;99.90
23207;DHT22;11773;52.570;13.052;2023-04-05T02:26:52;3.20;99.90
23207;DHT22;11773;52.570;13.052;2023-04-05T02:29:23;3.10;99.90
23207;DHT22;11773;52.570;13.052;2023-04-05T02:31:53;2.80;99.90
23207;DHT22;11773;52.570;13.052;2023-04-05T02:34:22;2.90;99.90
23207;DHT22;11773;52.570;13.052;2023-04-05T02:36:52;3.10;99.90
23207;DHT22;11773;52.570;13.052;2023-04-05T02:39:22;3.30;99.90
23207;DHT22;11773;52.570;13.052;2023-04-05T02:41:53;3.30;99.90
23207;DHT22;11773;52.570;13.052;2023-04-05T02:44:23;3.30;99.90
23207;DHT22;11773;52.570;13.052;2023-04-05T02:46:53;3.30;99.90
23207;DHT22;11773;52.570;13.052;2023-04-05T02:49:22;3.20;99.90
23207;DHT22;11773;52.570;13.052;2023-04-05T02:51:52;3.20;99.90
23207;DHT22;11773;52.570;13.052;2023-04-05T02:54:22;3.30;99.90
23207;DHT22;11773;52.570;13.052;2023-04-05T02:56:52;3.20;99.90
23207;DHT22;11773;52.570;13.052;2023-04-05T02:59:24;3.30;99.90
23207;DHT22;11773;52.570;13.052;2023-04-05T03:01:53;3.30;99.90
23207;DHT22;11773;52.570;13.052;2023-04-05T03:04:23;3.20;99.90
23207;DHT22;11773;52.570;13.052;2023-04-05T03:06:53;3.10;99.90
23207;DHT22;11773;52.570;13.052;2023-04-05T03:09:23;3.20;99.90
23207;DHT22;11773;52.570;13.052;2023-04-05T03:11:54;3.30;99.90
23207;DHT22;11773;52.570;13.052;2023-04-05T03:14:23;3.20;99.90
23207;DHT22;11773;52.570;13.052;2023-04-05T03:16:53;3.30;99.90
23207;DHT22;11773;52.570;13.052;2023-04-05T03:19:23;3.30;99.90
23207;DHT22;11773;52.570;13.052;2023-04-05T03:21:53;3.40;99.90
23207;DHT22;11773;52.570;13.052;2023-04-05T03:24:24;3.30;99.90
23207;DHT22;11773;52.570;13.052;2023-04-05T03:26:54;3.30;99.90
23207;DHT22;11773;52.570;13.052;2023-04-05T03:29:25;3.30;99.90
23207;DHT22;11773;52.570;13.052;2023-04-05T03:31:56;3.40;99.90
23207;DHT22;11773;52.570;13.052;2023-04-05T03:34:26;3.40;99.90
23207;DHT22;11773;52.570;13.052;2023-04-05T03:36:57;3.50;99.90
23207;DHT22;11773;52.570;13.052;2023-04-05T03:39:26;3.40;99.90
23207;DHT22;11773;52.570;13.052;2023-04-05T03:41:56;3.40;99.90
23207;DHT22;11773;52.570;13.052;2023-04-05T03:44:25;3.30;99.90
23207;DHT22;11773;52.570;13.052;2023-04-05T03:46:56;3.30;99.90
23207;DHT22;11773;52.570;13.052;2023-04-05T03:49:26;3.30;99.90
23207;DHT22;11773;52.570;13.052;2023-04-05T03:51:55;3.30;99.90
23207;DHT22;11773;52.570;13.052;2023-04-05T03:54:25;3.30;99.90
23207;DHT22;11773;52.570;13.052;2023-04-05T03:56:54;3.30;99.90
23207;DHT22;11773;52.570;13.052;2023-04-05T03:59:24;3.30;99.90
23207;DHT22;11773;52.570;13.052;2023-04-05T04:01:54;3.30;99.90
23207;DHT22;11773;52.570;13.052;2023-04-05T04:04:23;3.30;99.90
23207;DHT22;11773;52.570;13.052;2023-04-05T04:06:53;3.30;99.90
23207;DHT22;11773;52.570;13.052;2023-04-05T04:09:23;3.40;99.90
23207;DHT22;11773;52.570;13.052;2023-04-05T04:11:54;3.30;99.90
23207;DHT22;11773;52.570;13.052;2023-04-05T04:14:27;3.30;99.90
23207;DHT22;11773;52.570;13.052;2023-04-05T04:16:57;3.30;99.90
23207;DHT22;11773;52.570;13.052;2023-04-05T04:19:26;3.20;99.90
23207;DHT22;11773;52.570;13.052;2023-04-05T04:21:56;3.30;99.90
23207;DHT22;11773;52.570;13.052;2023-04-05T04:24:25;3.10;99.90
23207;DHT22;11773;52.570;13.052;2023-04-05T04:26:55;3.20;99.90
23207;DHT22;11773;52.570;13.052;2023-04-05T04:29:24;3.30;99.90
23207;DHT22;11773;52.570;13.052;2023-04-05T04:31:55;3.10;99.90
23207;DHT22;11773;52.570;13.052;2023-04-05T04:34:25;3.00;99.90
23207;DHT22;11773;52.570;13.052;2023-04-05T04:36:56;2.90;99.90
23207;DHT22;11773;52.570;13.052;2023-04-05T04:39:28;3.00;99.90
23207;DHT22;11773;52.570;13.052;2023-04-05T04:41:58;3.20;99.90
23207;DHT22;11773;52.570;13.052;2023-04-05T04:44:28;3.20;99.90
23207;DHT22;11773;52.570;13.052;2023-04-05T04:46:58;3.00;99.90
23207;DHT22;11773;52.570;13.052;2023-04-05T04:49:28;3.10;99.90
23207;DHT22;11773;52.570;13.052;2023-04-05T04:51:59;3.10;99.90
23207;DHT22;11773;52.570;13.052;2023-04-05T04:54:28;3.10;99.90
23207;DHT22;11773;52.570;13.052;2023-04-05T04:56:59;3.20;99.90
23207;DHT22;11773;52.570;13.052;2023-04-05T04:59:31;3.00;99.90
23207;DHT22;11773;52.570;13.052;2023-04-05T05:02:00;2.90;99.90
23207;DHT22;11773;52.570;13.052;2023-04-05T05:04:30;2.90;99.90
23207;DHT22;11773;52.570;13.052;2023-04-05T05:07:01;2.90;99.90
23207;DHT22;11773;52.570;13.052;2023-04-05T05:09:31;2.80;99.90
23207;DHT22;11773;52.570;13.052;2023-04-05T05:12:00;2.90;99.90
23207;DHT22;11773;52.570;13.052;2023-04-05T05:14:30;3.20;99.90
23207;DHT22;11773;52.570;13.052;2023-04-05T05:16:59;3.20;99.90
23207;DHT22;11773;52.570;13.052;2023-04-05T05:19:31;3.20;99.90
23207;DHT22;11773;52.570;13.052;2023-04-05T05:22:00;3.10;99.90
23207;DHT22;11773;52.570;13.052;2023-04-05T05:24:30;3.20;99.90
23207;DHT22;11773;52.570;13.052;2023-04-05T05:26:59;3.00;99.90
23207;DHT22;11773;52.570;13.052;2023-04-05T05:29:29;3.10;99.90
23207;DHT22;11773;52.570;13.052;2023-04-05T05:31:59;3.00;99.90
23207;DHT22;11773;52.570;13.052;2023-04-05T05:34:28;3.10;99.90
23207;DHT22;11773;52.570;13.052;2023-04-05T05:36:58;3.10;99.90
23207;DHT22;11773;52.570;13.052;2023-04-05T05:39:28;3.00;99.90
23207;DHT22;11773;52.570;13.052;2023-04-05T05:41:57;3.20;99.90
23207;DHT22;11773;52.570;13.052;2023-04-05T05:44:33;3.30;99.90
23207;DHT22;11773;52.570;13.052;2023-04-05T05:46:58;3.00;99.90
23207;DHT22;11773;52.570;13.052;2023-04-05T05:49:28;3.00;99.90
23207;DHT22;11773;52.570;13.052;2023-04-05T05:51:58;3.10;99.90
23207;DHT22;11773;52.570;13.052;2023-04-05T05:54:27;3.30;99.90
23207;DHT22;11773;52.570;13.052;2023-04-05T05:56:57;3.30;99.90
23207;DHT22;11773;52.570;13.052;2023-04-05T05:59:27;3.40;99.90
23207;DHT22;11773;52.570;13.052;2023-04-05T06:01:56;3.30;99.90
23207;DHT22;11773;52.570;13.052;2023-04-05T06:04:26;3.30;99.90
23207;DHT22;11773;52.570;13.052;2023-04-05T06:06:56;3.60;99.90
23207;DHT22;11773;52.570;13.052;2023-04-05T06:09:27;3.50;99.90
23207;DHT22;11773;52.570;13.052;2023-04-05T06:11:56;3.70;99.90
23207;DHT22;11773;52.570;13.052;2023-04-05T06:14:26;3.80;99.90
23207;DHT22;11773;52.570;13.052;2023-04-05T06:16:57;3.80;99.90
23207;DHT22;11773;52.570;13.052;2023-04-05T06:19:26;3.90;99.90
23207;DHT22;11773;52.570;13.052;2023-04-05T06:21:56;4.00;99.90
23207;DHT22;11773;52.570;13.052;2023-04-05T06:24:27;3.80;99.90
23207;DHT22;11773;52.570;13.052;2023-04-05T06:26:58;3.90;99.90
23207;DHT22;11773;52.570;13.052;2023-04-05T06:29:28;4.00;99.90
23207;DHT22;11773;52.570;13.052;2023-04-05T06:31:57;4.10;99.90
23207;DHT22;11773;52.570;13.052;2023-04-05T06:34:28;4.30;99.90
23207;DHT22;11773;52.570;13.052;2023-04-05T06:36:58;4.40;99.90
23207;DHT22;11773;52.570;13.052;2023-04-05T06:39:27;4.40;99.90
23207;DHT22;11773;52.570;13.052;2023-04-05T06:41:57;4.40;99.90
23207;DHT22;11773;52.570;13.052;2023-04-05T06:44:26;4.30;99.90
23207;DHT22;11773;52.570;13.052;2023-04-05T06:46:56;4.60;99.90
23207;DHT22;11773;52.570;13.052;2023-04-05T06:49:25;4.80;99.90
23207;DHT22;11773;52.570;13.052;2023-04-05T06:51:55;5.20;99.90
23207;DHT22;11773;52.570;13.052;2023-04-05T06:54:25;5.60;99.90
23207;DHT22;11773;52.570;13.052;2023-04-05T06:56:54;5.70;99.90
23207;DHT22;11773;52.570;13.052;2023-04-05T06:59:28;5.80;99.90
23207;DHT22;11773;52.570;13.052;2023-04-05T07:01:57;5.90;99.90
23207;DHT22;11773;52.570;13.052;2023-04-05T07:04:27;5.40;99.90
23207;DHT22;11773;52.570;13.052;2023-04-05T07:06:59;5.30;99.90
23207;DHT22;11773;52.570;13.052;2023-04-05T07:09:31;5.50;99.90
23207;DHT22;11773;52.570;13.052;2023-04-05T07:12:05;5.70;99.90
23207;DHT22;11773;52.570;13.052;2023-04-05T07:14:36;5.50;99.90
23207;DHT22;11773;52.570;13.052;2023-04-05T07:17:06;5.70;99.90
23207;DHT22;11773;52.570;13.052;2023-04-05T07:19:35;5.70;99.90
23207;DHT22;11773;52.570;13.052;2023-04-05T07:22:05;5.90;99.90
23207;DHT22;11773;52.570;13.052;2023-04-05T07:24:35;6.00;99.90
23207;DHT22;11773;52.570;13.052;2023-04-05T07:27:04;6.10;99.90
23207;DHT22;11773;52.570;13.052;2023-04-05T07:29:34;6.20;99.90
23207;DHT22;11773;52.570;13.052;2023-04-05T07:32:05;6.30;99.90
23207;DHT22;11773;52.570;13.052;2023-04-05T07:34:36;6.30;99.90
23207;DHT22;11773;52.570;13.052;2023-04-05T07:37:05;6.40;99.90
23207;DHT22;11773;52.570;13.052;2023-04-05T07:39:35;6.40;99.90
23207;DHT22;11773;52.570;13.052;2023-04-05T07:42:05;6.50;99.90
23207;DHT22;11773;52.570;13.052;2023-04-05T07:44:34;6.70;99.90
23207;DHT22;11773;52.570;13.052;2023-04-05T07:47:04;7.10;99.90
23207;DHT22;11773;52.570;13.052;2023-04-05T07:49:33;7.20;99.90
23207;DHT22;11773;52.570;13.052;2023-04-05T07:52:05;7.50;99.90
23207;DHT22;11773;52.570;13.052;2023-04-05T07:54:34;7.90;99.90
23207;DHT22;11773;52.570;13.052;2023-04-05T07:57:05;7.70;99.90
23207;DHT22;11773;52.570;13.052;2023-04-05T07:59:35;7.80;99.90
23207;DHT22;11773;52.570;13.052;2023-04-05T08:02:05;7.90;99.90
23207;DHT22;11773;52.570;13.052;2023-04-05T08:04:36;7.80;99.90
23207;DHT22;11773;52.570;13.052;2023-04-05T08:07:06;8.10;99.90
23207;DHT22;11773;52.570;13.052;2023-04-05T08:09:36;8.20;99.90
23207;DHT22;11773;52.570;13.052;2023-04-05T08:12:06;8.50;99.90
23207;DHT22;11773;52.570;13.052;2023-04-05T08:14:37;8.60;99.90
23207;DHT22;11773;52.570;13.052;2023-04-05T08:17:06;8.70;99.90
23207;DHT22;11773;52.570;13.052;2023-04-05T08:19:36;8.80;99.90
23207;DHT22;11773;52.570;13.052;2023-04-05T08:22:06;9.00;99.90
23207;DHT22;11773;52.570;13.052;2023-04-05T08:24:35;8.90;99.90
23207;DHT22;11773;52.570;13.052;2023-04-05T08:27:05;9.00;99.90
23207;DHT22;11773;52.570;13.052;2023-04-05T08:29:34;9.20;99.90
23207;DHT22;11773;52.570;13.052;2023-04-05T08:32:04;9.10;99.90
23207;DHT22;11773;52.570;13.052;2023-04-05T08:34:35;9.00;99.90
23207;DHT22;11773;52.570;13.052;2023-04-05T08:37:05;9.20;99.90
23207;DHT22;11773;52.570;13.052;2023-04-05T08:39:35;9.20;99.90
23207;DHT22;11773;52.570;13.052;2023-04-05T08:42:17;9.20;99.90
23207;DHT22;11773;52.570;13.052;2023-04-05T08:44:43;9.20;99.90
23207;DHT22;11773;52.570;13.052;2023-04-05T08:47:17;9.30;99.90
23207;DHT22;11773;52.570;13.052;2023-04-05T08:49:47;9.40;99.90
23207;DHT22;11773;52.570;13.052;2023-04-05T08:52:17;9.20;99.90
23207;DHT22;11773;52.570;13.052;2023-04-05T08:54:47;9.40;99.90
23207;DHT22;11773;52.570;13.052;2023-04-05T08:57:18;9.30;99.90
23207;DHT22;11773;52.570;13.052;2023-04-05T08:59:50;9.00;99.90
23207;DHT22;11773;52.570;13.052;2023-04-05T09:02:22;9.10;99.90
23207;DHT22;11773;52.570;13.052;2023-04-05T09:04:53;9.30;99.90
23207;DHT22;11773;52.570;13.052;2023-04-05T09:07:24;9.30;99.90
23207;DHT22;11773;52.570;13.052;2023-04-05T09:09:59;9.50;99.90
23207;DHT22;11773;52.570;13.052;2023-04-05T09:12:30;9.30;99.90
23207;DHT22;11773;52.570;13.052;2023-04-05T09:15:00;9.70;99.90
23207;DHT22;11773;52.570;13.052;2023-04-05T09:17:31;9.90;99.90
23207;DHT22;11773;52.570;13.052;2023-04-05T09:20:02;9.70;99.90
23207;DHT22;11773;52.570;13.052;2023-04-05T09:22:43;9.90;99.90
23207;DHT22;11773;52.570;13.052;2023-04-05T09:28:13;10.10;99.90
23207;DHT22;11773;52.570;13.052;2023-04-05T09:30:44;10.20;99.90
23207;DHT22;11773;52.570;13.052;2023-04-05T09:33:14;10.40;99.90
23207;DHT22;11773;52.570;13.052;2023-04-05T09:35:49;10.40;99.90
23207;DHT22;11773;52.570;13.052;2023-04-05T09:38:19;10.10;99.90
23207;DHT22;11773;52.570;13.052;2023-04-05T09:40:52;9.60;99.90
23207;DHT22;11773;52.570;13.052;2023-04-05T09:43:41;9.90;99.90
23207;DHT22;11773;52.570;13.052;2023-04-05T09:46:33;9.70;99.90
23207;DHT22;11773;52.570;13.052;2023-04-05T09:49:06;10.00;99.90
23207;DHT22;11773;52.570;13.052;2023-04-05T09:51:38;10.30;99.90
23207;DHT22;11773;52.570;13.052;2023-04-05T09:54:09;10.60;99.90
23207;DHT22;11773;52.570;13.052;2023-04-05T09:56:40;10.70;99.90
23207;DHT22;11773;52.570;13.052;2023-04-05T09:59:12;10.30;99.90
23207;DHT22;11773;52.570;13.052;2023-04-05T10:01:44;10.70;99.90
23207;DHT22;11773;52.570;13.052;2023-04-05T10:04:15;11.00;99.90
23207;DHT22;11773;52.570;13.052;2023-04-05T10:06:51;10.90;99.90
23207;DHT22;11773;52.570;13.052;2023-04-05T10:09:21;10.90;99.90
23207;DHT22;11773;52.570;13.052;2023-04-05T10:11:51;10.60;99.90
23207;DHT22;11773;52.570;13.052;2023-04-05T10:14:21;10.60;99.90
23207;DHT22;11773;52.570;13.052;2023-04-05T10:17:11;10.50;99.90
23207;DHT22;11773;52.570;13.052;2023-04-05T10:20:14;10.50;99.90
23207;DHT22;11773;52.570;13.052;2023-04-05T10:23:00;10.20;99.90
23207;DHT22;11773;52.570;13.052;2023-04-05T10:28:32;10.60;99.90
23207;DHT22;11773;52.570;13.052;2023-04-05T10:34:06;10.30;99.90
23207;DHT22;11773;52.570;13.052;2023-04-05T10:37:00;10.30;99.90
23207;DHT22;11773;52.570;13.052;2023-04-05T10:39:39;10.30;99.90
23207;DHT22;11773;52.570;13.052;2023-04-05T10:42:21;10.60;99.90
23207;DHT22;11773;52.570;13.052;2023-04-05T10:44:58;10.60;99.90
23207;DHT22;11773;52.570;13.052;2023-04-05T10:47:35;10.60;99.90
23207;DHT22;11773;52.570;13.052;2023-04-05T10:50:07;10.80;99.90
23207;DHT22;11773;52.570;13.052;2023-04-05T10:52:39;11.00;99.90
23207;DHT22;11773;52.570;13.052;2023-04-05T10:55:11;10.50;99.90
23207;DHT22;11773;52.570;13.052;2023-04-05T10:57:41;10.40;99.90
23207;DHT22;11773;52.570;13.052;2023-04-05T11:00:14;10.50;99.90
23207;DHT22;11773;52.570;13.052;2023-04-05T11:02:44;10.60;99.90
23207;DHT22;11773;52.570;13.052;2023-04-05T11:05:36;10.50;99.90
23207;DHT22;11773;52.570;13.052;2023-04-05T11:08:09;10.40;99.90
23207;DHT22;11773;52.570;13.052;2023-04-05T11:10:36;10.50;99.90
23207;DHT22;11773;52.570;13.052;2023-04-05T11:13:08;10.70;99.90
23207;DHT22;11773;52.570;13.052;2023-04-05T11:15:38;10.60;99.90
23207;DHT22;11773;52.570;13.052;2023-04-05T11:18:09;10.60;99.90
23207;DHT22;11773;52.570;13.052;2023-04-05T11:20:49;10.80;99.90
23207;DHT22;11773;52.570;13.052;2023-04-05T11:23:22;10.80;99.90
23207;DHT22;11773;52.570;13.052;2023-04-05T11:26:03;10.80;99.90
23207;DHT22;11773;52.570;13.052;2023-04-05T11:28:36;10.70;99.90
23207;DHT22;11773;52.570;13.052;2023-04-05T11:31:19;9.90;99.90
23207;DHT22;11773;52.570;13.052;2023-04-05T11:33:57;9.70;99.90
23207;DHT22;11773;52.570;13.052;2023-04-05T11:36:43;9.90;99.90
23207;DHT22;11773;52.570;13.052;2023-04-05T11:42:09;10.40;99.90
23207;DHT22;11773;52.570;13.052;2023-04-05T11:44:47;10.60;99.90
23207;DHT22;11773;52.570;13.052;2023-04-05T11:47:19;10.80;99.90
23207;DHT22;11773;52.570;13.052;2023-04-05T11:49:49;10.60;99.90
23207;DHT22;11773;52.570;13.052;2023-04-05T11:52:20;10.80;99.90
23207;DHT22;11773;52.570;13.052;2023-04-05T11:54:51;10.50;99.90
23207;DHT22;11773;52.570;13.052;2023-04-05T11:57:22;10.70;99.90
23207;DHT22;11773;52.570;13.052;2023-04-05T11:59:52;10.40;99.90
23207;DHT22;11773;52.570;13.052;2023-04-05T12:02:23;10.60;99.90
23207;DHT22;11773;52.570;13.052;2023-04-05T12:04:54;10.80;99.90
23207;DHT22;11773;52.570;13.052;2023-04-05T12:07:27;10.50;99.90
23207;DHT22;11773;52.570;13.052;2023-04-05T12:10:04;10.30;99.90
23207;DHT22;11773;52.570;13.052;2023-04-05T12:12:37;10.30;99.90
23207;DHT22;11773;52.570;13.052;2023-04-05T12:15:09;10.30;99.90
23207;DHT22;11773;52.570;13.052;2023-04-05T12:17:44;10.50;99.90
23207;DHT22;11773;52.570;13.052;2023-04-05T12:20:18;10.50;99.90
23207;DHT22;11773;52.570;13.052;2023-04-05T12:22:53;10.50;99.90
23207;DHT22;11773;52.570;13.052;2023-04-05T12:25:24;10.90;99.90
23207;DHT22;11773;52.570;13.052;2023-04-05T12:27:54;11.00;99.90
23207;DHT22;11773;52.570;13.052;2023-04-05T12:30:26;10.60;99.90
23207;DHT22;11773;52.570;13.052;2023-04-05T12:32:57;10.60;99.90
23207;DHT22;11773;52.570;13.052;2023-04-05T12:35:30;10.70;99.90
23207;DHT22;11773;52.570;13.052;2023-04-05T12:38:03;10.80;99.90
23207;DHT22;11773;52.570;13.052;2023-04-05T12:40:36;10.70;99.90
23207;DHT22;11773;52.570;13.052;2023-04-05T12:43:08;10.50;99.90
23207;DHT22;11773;52.570;13.052;2023-04-05T12:45:37;10.40;99.90
23207;DHT22;11773;52.570;13.052;2023-04-05T12:48:14;10.20;99.90
23207;DHT22;11773;52.570;13.052;2023-04-05T12:50:46;10.00;99.90
23207;DHT22;11773;52.570;13.052;2023-04-05T12:53:20;10.00;99.90
23207;DHT22;11773;52.570;13.052;2023-04-05T12:55:56;9.90;99.90
23207;DHT22;11773;52.570;13.052;2023-04-05T12:58:33;10.00;99.90
23207;DHT22;11773;52.570;13.052;2023-04-05T13:01:05;10.10;99.90
23207;DHT22;11773;52.570;13.052;2023-04-05T13:03:35;9.90;99.90
23207;DHT22;11773;52.570;13.052;2023-04-05T13:06:05;10.10;99.90
23207;DHT22;11773;52.570;13.052;2023-04-05T13:08:34;10.10;99.90
23207;DHT22;11773;52.570;13.052;2023-04-05T13:11:04;10.10;99.90
23207;DHT22;11773;52.570;13.052;2023-04-05T13:13:33;10.40;99.90
23207;DHT22;11773;52.570;13.052;2023-04-05T13:16:03;10.50;99.90
23207;DHT22;11773;52.570;13.052;2023-04-05T13:18:33;10.60;99.90
23207;DHT22;11773;52.570;13.052;2023-04-05T13:21:03;10.80;99.90
23207;DHT22;11773;52.570;13.052;2023-04-05T13:23:35;10.90;99.90
23207;DHT22;11773;52.570;13.052;2023-04-05T13:26:05;10.90;99.90
23207;DHT22;11773;52.570;13.052;2023-04-05T13:28:35;10.80;99.90
23207;DHT22;11773;52.570;13.052;2023-04-05T13:31:05;10.90;99.90
23207;DHT22;11773;52.570;13.052;2023-04-05T13:33:35;11.10;99.90
23207;DHT22;11773;52.570;13.052;2023-04-05T13:36:04;11.20;99.90
23207;DHT22;11773;52.570;13.052;2023-04-05T13:38:34;11.10;99.90
23207;DHT22;11773;52.570;13.052;2023-04-05T13:41:04;11.20;99.90
23207;DHT22;11773;52.570;13.052;2023-04-05T13:43:34;11.40;99.90
23207;DHT22;11773;52.570;13.052;2023-04-05T13:46:03;11.40;99.90
23207;DHT22;11773;52.570;13.052;2023-04-05T13:48:33;11.50;99.90
23207;DHT22;11773;52.570;13.052;2023-04-05T13:51:02;11.50;99.90
23207;DHT22;11773;52.570;13.052;2023-04-05T13:53:32;11.60;99.90
23207;DHT22;11773;52.570;13.052;2023-04-05T13:56:02;11.70;99.90
23207;DHT22;11773;52.570;13.052;2023-04-05T13:58:33;11.40;99.90
23207;DHT22;11773;52.570;13.052;2023-04-05T14:01:03;11.60;99.90
23207;DHT22;11773;52.570;13.052;2023-04-05T14:03:32;11.60;99.90
23207;DHT22;11773;52.570;13.052;2023-04-05T14:06:02;11.50;99.90
23207;DHT22;11773;52.570;13.052;2023-04-05T14:08:32;11.60;99.90
23207;DHT22;11773;52.570;13.052;2023-04-05T14:11:01;11.60;99.90
23207;DHT22;11773;52.570;13.052;2023-04-05T14:13:31;11.50;99.90
23207;DHT22;11773;52.570;13.052;2023-04-05T14:16:01;10.70;99.90
23207;DHT22;11773;52.570;13.052;2023-04-05T14:18:30;10.40;99.90
23207;DHT22;11773;52.570;13.052;2023-04-05T14:21:00;10.60;99.90
23207;DHT22;11773;52.570;13.052;2023-04-05T14:23:29;10.90;99.90
23207;DHT22;11773;52.570;13.052;2023-04-05T14:25:59;10.90;99.90
23207;DHT22;11773;52.570;13.052;2023-04-05T14:28:29;11.00;99.90
23207;DHT22;11773;52.570;13.052;2023-04-05T14:30:59;11.10;99.90
23207;DHT22;11773;52.570;13.052;2023-04-05T14:33:28;11.10;99.90
23207;DHT22;11773;52.570;13.052;2023-04-05T14:35:58;10.90;99.90
23207;DHT22;11773;52.570;13.052;2023-04-05T14:38:27;10.50;99.90
23207;DHT22;11773;52.570;13.052;2023-04-05T14:40:57;10.80;99.90
23207;DHT22;11773;52.570;13.052;2023-04-05T14:43:27;10.90;99.90
23207;DHT22;11773;52.570;13.052;2023-04-05T14:45:56;11.00;99.90
23207;DHT22;11773;52.570;13.052;2023-04-05T14:48:26;11.00;99.90
23207;DHT22;11773;52.570;13.052;2023-04-05T14:50:57;11.10;99.90
23207;DHT22;11773;52.570;13.052;2023-04-05T14:53:27;11.00;99.90
23207;DHT22;11773;52.570;13.052;2023-04-05T14:55:57;10.90;99.90
23207;DHT22;11773;52.570;13.052;2023-04-05T14:58:26;10.90;99.90
23207;DHT22;11773;52.570;13.052;2023-04-05T15:00:56;10.80;99.90
23207;DHT22;11773;52.570;13.052;2023-04-05T15:03:26;10.80;99.90
23207;DHT22;11773;52.570;13.052;2023-04-05T15:05:57;10.80;99.90
23207;DHT22;11773;52.570;13.052;2023-04-05T15:08:27;10.60;99.90
23207;DHT22;11773;52.570;13.052;2023-04-05T15:10:57;10.60;99.90
23207;DHT22;11773;52.570;13.052;2023-04-05T15:13:26;10.80;99.90
23207;DHT22;11773;52.570;13.052;2023-04-05T15:15:56;10.90;99.90
23207;DHT22;11773;52.570;13.052;2023-04-05T15:18:25;10.70;99.90
23207;DHT22;11773;52.570;13.052;2023-04-05T15:20:55;10.60;99.90
23207;DHT22;11773;52.570;13.052;2023-04-05T15:23:24;10.70;99.90
23207;DHT22;11773;52.570;13.052;2023-04-05T15:25:54;10.80;99.90
23207;DHT22;11773;52.570;13.052;2023-04-05T15:28:24;10.60;99.90
23207;DHT22;11773;52.570;13.052;2023-04-05T15:30:53;10.30;99.90
23207;DHT22;11773;52.570;13.052;2023-04-05T15:33:23;10.00;99.90
23207;DHT22;11773;52.570;13.052;2023-04-05T15:35:53;10.00;99.90
23207;DHT22;11773;52.570;13.052;2023-04-05T15:38:22;10.30;99.90
23207;DHT22;11773;52.570;13.052;2023-04-05T15:40:52;10.40;99.90
23207;DHT22;11773;52.570;13.052;2023-04-05T15:43:23;10.40;99.90
23207;DHT22;11773;52.570;13.052;2023-04-05T15:45:53;10.50;99.90
23207;DHT22;11773;52.570;13.052;2023-04-05T15:48:23;10.40;99.90
23207;DHT22;11773;52.570;13.052;2023-04-05T15:50:52;10.30;99.90
23207;DHT22;11773;52.570;13.052;2023-04-05T15:53:22;10.30;99.90
23207;DHT22;11773;52.570;13.052;2023-04-05T15:55:51;10.20;99.90
23207;DHT22;11773;52.570;13.052;2023-04-05T15:58:21;10.10;99.90
23207;DHT22;11773;52.570;13.052;2023-04-05T16:00:50;10.20;99.90
23207;DHT22;11773;52.570;13.052;2023-04-05T16:03:20;10.20;99.90